Time;durP1;ratioP1;P1;durP2;ratioP2;P2;SDS_P1;SDS_P2;PMS_P1;PMS_P2;Temp;Humidity;BMP_temperature;BMP_pressure;BME280_temperature;BME280_humidity;BME280_pressure;Samples;Min_cycle;Max_cycle;Signal;HPM_P1;HPM_P2
2023/12/26 00:01:50;;;;;;;0.80;0.50;;;12.00;99.90;;;;;;5064323;28;20194;-74
2023/12/26 00:04:15;;;;;;;1.30;1.20;;;12.10;99.90;;;;;;5064941;28;20178;-75
2023/12/26 00:06:44;;;;;;;0.80;0.60;;;12.00;99.90;;;;;;5074094;28;20619;-74
2023/12/26 00:09:12;;;;;;;0.70;0.50;;;12.00;99.90;;;;;;5074337;28;20648;-74
2023/12/26 00:11:44;;;;;;;0.73;0.57;;;11.90;99.90;;;;;;5072689;28;20635;-74
2023/12/26 00:14:10;;;;;;;0.80;0.60;;;11.90;99.90;;;;;;5068929;28;20474;-76
2023/12/26 00:16:35;;;;;;;1.10;0.70;;;11.90;99.90;;;;;;5063233;28;20449;-75
2023/12/26 00:19:01;;;;;;;1.93;0.70;;;11.90;99.90;;;;;;5072353;28;20166;-75
2023/12/26 00:21:26;;;;;;;0.87;0.63;;;11.90;99.90;;;;;;5071314;28;20185;-74
2023/12/26 00:23:52;;;;;;;0.90;0.60;;;11.90;99.90;;;;;;5068084;28;20653;-75
2023/12/26 00:26:17;;;;;;;0.80;0.80;;;11.90;99.90;;;;;;5068283;28;20552;-75
2023/12/26 00:28:43;;;;;;;2.00;0.60;;;11.90;99.90;;;;;;5072827;28;20546;-75
2023/12/26 00:31:08;;;;;;;0.90;0.73;;;11.90;99.90;;;;;;5063097;28;20253;-74
2023/12/26 00:33:34;;;;;;;0.90;0.80;;;11.80;99.90;;;;;;5065635;28;20227;-74
2023/12/26 00:35:59;;;;;;;0.97;0.60;;;11.80;99.90;;;;;;5073671;28;20197;-74
2023/12/26 00:38:25;;;;;;;1.10;0.70;;;11.80;99.90;;;;;;5065709;28;20198;-75
2023/12/26 00:40:51;;;;;;;0.90;0.70;;;11.80;99.90;;;;;;5063013;28;20625;-75
2023/12/26 00:43:17;;;;;;;1.90;0.80;;;11.80;99.90;;;;;;5072044;28;20478;-74
2023/12/26 00:45:42;;;;;;;0.80;0.60;;;11.80;99.90;;;;;;5067460;28;20586;-74
2023/12/26 00:48:08;;;;;;;0.80;0.60;;;11.80;99.90;;;;;;5060006;28;20170;-73
2023/12/26 00:50:41;;;;;;;1.13;0.70;;;11.70;99.90;;;;;;5071186;28;20206;-73
2023/12/26 00:53:08;;;;;;;0.90;0.70;;;11.70;99.90;;;;;;5073003;28;20573;-74
2023/12/26 00:55:34;;;;;;;0.80;0.60;;;11.70;99.90;;;;;;5073222;28;20419;-74
2023/12/26 00:57:59;;;;;;;0.70;0.50;;;11.70;99.90;;;;;;5071775;28;20472;-74
2023/12/26 01:00:25;;;;;;;2.50;0.60;;;11.70;99.90;;;;;;5068071;28;20190;-73
2023/12/26 01:02:51;;;;;;;0.80;0.60;;;11.70;99.90;;;;;;5068925;28;20194;-76
2023/12/26 01:05:17;;;;;;;0.80;0.60;;;11.60;99.90;;;;;;5069205;28;20413;-73
2023/12/26 01:07:42;;;;;;;1.00;0.80;;;11.50;99.90;;;;;;5067317;28;20706;-73
2023/12/26 01:10:08;;;;;;;1.90;0.63;;;11.50;99.90;;;;;;5072986;28;20193;-73
2023/12/26 01:12:34;;;;;;;1.77;0.80;;;11.50;99.90;;;;;;5070030;28;20277;-74
2023/12/26 01:14:59;;;;;;;0.80;0.77;;;11.40;99.90;;;;;;5065403;28;20626;-74
2023/12/26 01:17:25;;;;;;;1.77;0.60;;;11.40;99.90;;;;;;5078610;28;20198;-73
2023/12/26 01:19:50;;;;;;;1.00;0.70;;;11.30;99.90;;;;;;5070061;28;20283;-73
2023/12/26 01:22:16;;;;;;;1.97;0.60;;;11.30;99.90;;;;;;5065727;28;20195;-73
2023/12/26 01:24:43;;;;;;;0.70;0.50;;;11.30;99.90;;;;;;5071899;28;20633;-74
2023/12/26 01:27:08;;;;;;;0.93;0.83;;;11.30;99.90;;;;;;5072568;28;20204;-74
2023/12/26 01:29:34;;;;;;;1.10;0.87;;;11.30;99.90;;;;;;5070560;28;20455;-73
2023/12/26 01:31:59;;;;;;;0.90;0.70;;;11.40;99.90;;;;;;5064555;28;20233;-73
2023/12/26 01:34:25;;;;;;;3.53;0.70;;;11.40;99.90;;;;;;5069317;28;20659;-73
2023/12/26 01:36:50;;;;;;;2.07;0.77;;;11.50;99.90;;;;;;5071618;28;20602;-73
2023/12/26 01:39:16;;;;;;;0.80;0.60;;;11.40;99.90;;;;;;5066741;28;20597;-74
2023/12/26 01:41:42;;;;;;;4.73;1.07;;;11.30;99.90;;;;;;5062960;28;20206;-74
2023/12/26 01:44:07;;;;;;;0.80;0.70;;;11.40;99.90;;;;;;5069638;28;20232;-73
2023/12/26 01:46:33;;;;;;;1.00;0.60;;;11.40;99.90;;;;;;5064566;28;20612;-73
2023/12/26 01:49:00;;;;;;;0.90;0.60;;;11.40;99.90;;;;;;5072098;28;20174;-73
2023/12/26 01:51:29;;;;;;;5.07;0.73;;;11.50;99.90;;;;;;5069208;28;20428;-72
2023/12/26 01:53:55;;;;;;;2.20;0.77;;;11.50;99.90;;;;;;5066235;28;20449;-72
2023/12/26 01:56:22;;;;;;;7.70;1.17;;;11.50;99.90;;;;;;5059216;28;20433;-73
2023/12/26 01:58:48;;;;;;;0.77;0.60;;;11.50;99.90;;;;;;5071827;28;20491;-73
2023/12/26 02:01:16;;;;;;;1.27;0.80;;;11.50;99.90;;;;;;5066985;28;20448;-73
2023/12/26 02:03:42;;;;;;;0.90;0.60;;;11.40;99.90;;;;;;5064865;28;20486;-73
2023/12/26 02:06:09;;;;;;;1.77;0.70;;;11.40;99.90;;;;;;5069010;28;20428;-72
2023/12/26 02:08:37;;;;;;;1.87;0.70;;;11.40;99.90;;;;;;5070203;28;20404;-73
2023/12/26 02:11:02;;;;;;;0.80;0.70;;;11.30;99.90;;;;;;5062367;28;20429;-74
2023/12/26 02:13:29;;;;;;;0.70;0.60;;;11.30;99.90;;;;;;5067625;28;20966;-74
2023/12/26 02:15:58;;;;;;;0.90;0.80;;;11.30;99.90;;;;;;5066048;28;20185;-75
2023/12/26 02:18:24;;;;;;;0.90;0.70;;;11.30;99.90;;;;;;5070427;28;20452;-74
2023/12/26 02:20:50;;;;;;;4.43;0.80;;;11.20;99.90;;;;;;5071725;28;20486;-73
2023/12/26 02:23:15;;;;;;;0.90;0.60;;;11.10;99.90;;;;;;5070415;28;20448;-73
2023/12/26 02:25:41;;;;;;;1.50;0.97;;;11.10;99.90;;;;;;5071791;28;20182;-75
2023/12/26 02:28:08;;;;;;;1.20;0.73;;;11.00;99.90;;;;;;5066805;28;20191;-73
2023/12/26 02:30:36;;;;;;;1.10;0.70;;;11.00;99.90;;;;;;5065505;28;20179;-74
2023/12/26 02:33:04;;;;;;;4.03;0.63;;;10.90;99.90;;;;;;5068640;28;20467;-74
2023/12/26 02:35:30;;;;;;;0.80;0.70;;;10.80;99.90;;;;;;5062589;28;20470;-74
2023/12/26 02:37:56;;;;;;;1.00;0.80;;;10.70;99.90;;;;;;5068335;28;20533;-74
2023/12/26 02:40:21;;;;;;;1.43;0.80;;;10.70;99.90;;;;;;5065005;28;20511;-74
2023/12/26 02:42:47;;;;;;;1.33;0.80;;;10.60;99.90;;;;;;5065874;28;20190;-72
2023/12/26 02:45:14;;;;;;;1.10;0.90;;;10.50;99.90;;;;;;5060700;28;20178;-73
2023/12/26 02:47:40;;;;;;;1.00;0.90;;;10.50;99.90;;;;;;5070218;28;20588;-74
2023/12/26 02:50:06;;;;;;;3.57;0.80;;;10.50;99.90;;;;;;5071597;28;20412;-72
2023/12/26 02:52:32;;;;;;;0.80;0.70;;;10.50;99.90;;;;;;5061589;28;20233;-73
2023/12/26 02:54:57;;;;;;;1.10;0.77;;;10.50;99.90;;;;;;5070306;28;20970;-73
2023/12/26 02:57:23;;;;;;;2.40;0.70;;;10.50;99.90;;;;;;5071426;28;20728;-73
2023/12/26 02:59:48;;;;;;;1.93;0.90;;;10.50;99.90;;;;;;5067235;28;20549;-73
2023/12/26 03:02:14;;;;;;;0.70;0.50;;;10.60;99.90;;;;;;5062051;28;20199;-74
2023/12/26 03:04:39;;;;;;;1.00;0.70;;;10.60;99.90;;;;;;5058324;28;20266;-73
2023/12/26 03:07:05;;;;;;;0.80;0.60;;;10.60;99.90;;;;;;5065194;28;20789;-73
2023/12/26 03:09:31;;;;;;;0.80;0.50;;;10.60;99.90;;;;;;5071268;28;20186;-72
2023/12/26 03:11:56;;;;;;;1.43;0.83;;;10.60;99.90;;;;;;5061887;28;20476;-73
2023/12/26 03:14:22;;;;;;;2.00;1.27;;;10.60;99.90;;;;;;5063526;28;20193;-73
2023/12/26 03:16:49;;;;;;;1.03;0.77;;;10.60;99.90;;;;;;5066909;28;20178;-73
2023/12/26 03:19:14;;;;;;;1.00;0.73;;;10.60;99.90;;;;;;5070175;28;20174;-74
2023/12/26 03:21:40;;;;;;;1.43;0.70;;;10.60;99.90;;;;;;5069843;28;20440;-74
2023/12/26 03:24:06;;;;;;;1.37;0.80;;;10.50;99.90;;;;;;5067308;28;20194;-72
2023/12/26 03:26:32;;;;;;;0.80;0.57;;;10.50;99.90;;;;;;5070176;28;20564;-73
2023/12/26 03:28:57;;;;;;;0.90;0.73;;;10.50;99.90;;;;;;5073506;28;20421;-73
2023/12/26 03:31:23;;;;;;;0.80;0.60;;;10.50;99.90;;;;;;5070501;28;20899;-73
2023/12/26 03:33:49;;;;;;;1.30;0.90;;;10.50;99.90;;;;;;5064913;28;20186;-73
2023/12/26 03:36:14;;;;;;;2.40;0.97;;;10.60;99.90;;;;;;5065313;28;20182;-74
2023/12/26 03:38:42;;;;;;;1.43;0.60;;;10.50;99.90;;;;;;5074636;28;20707;-73
2023/12/26 03:41:07;;;;;;;1.03;0.90;;;10.50;99.90;;;;;;5067249;28;20178;-74
2023/12/26 03:43:33;;;;;;;1.97;1.00;;;10.50;99.90;;;;;;5070764;28;20443;-73
2023/12/26 03:45:58;;;;;;;2.50;0.80;;;10.50;99.90;;;;;;5062272;28;20186;-74
2023/12/26 03:48:24;;;;;;;2.20;0.83;;;10.50;99.90;;;;;;5074554;28;20520;-73
2023/12/26 03:50:49;;;;;;;2.87;0.70;;;10.50;99.90;;;;;;5068587;28;20611;-73
2023/12/26 03:53:15;;;;;;;1.00;0.67;;;10.50;99.90;;;;;;5073106;28;20218;-73
2023/12/26 03:55:41;;;;;;;4.17;0.80;;;10.50;99.90;;;;;;5072836;28;20182;-74
2023/12/26 03:58:06;;;;;;;3.40;0.80;;;10.50;99.90;;;;;;5074350;28;20272;-75
2023/12/26 04:00:32;;;;;;;1.63;0.77;;;10.50;99.90;;;;;;5066760;28;20174;-73
2023/12/26 04:02:58;;;;;;;1.07;0.70;;;10.50;99.90;;;;;;5074011;28;20867;-74
2023/12/26 04:05:23;;;;;;;0.80;0.60;;;10.50;99.90;;;;;;5069683;28;20184;-73
2023/12/26 04:07:49;;;;;;;3.23;0.70;;;10.50;99.90;;;;;;5072894;28;20188;-73
2023/12/26 04:10:15;;;;;;;1.20;0.80;;;10.50;99.90;;;;;;5067836;28;20186;-73
2023/12/26 04:12:41;;;;;;;1.63;1.03;;;10.60;99.90;;;;;;5071891;28;20198;-73
2023/12/26 04:15:08;;;;;;;0.83;0.70;;;10.60;99.90;;;;;;5064535;28;20194;-74
2023/12/26 04:17:33;;;;;;;1.10;0.83;;;10.60;99.90;;;;;;5069351;28;20467;-73
2023/12/26 04:19:59;;;;;;;1.50;0.70;;;10.60;99.90;;;;;;5073855;28;20412;-74
2023/12/26 04:22:24;;;;;;;1.10;0.60;;;10.60;99.90;;;;;;5071915;28;20280;-73
2023/12/26 04:24:50;;;;;;;0.80;0.70;;;10.50;99.90;;;;;;5063053;28;20218;-73
2023/12/26 04:27:15;;;;;;;1.00;0.90;;;10.60;99.90;;;;;;5064263;28;20183;-74
2023/12/26 04:29:41;;;;;;;5.10;0.97;;;10.60;99.90;;;;;;5069939;28;20247;-74
2023/12/26 04:32:07;;;;;;;2.23;0.70;;;10.60;99.90;;;;;;5069676;28;20214;-73
2023/12/26 04:34:32;;;;;;;1.00;0.90;;;10.60;99.90;;;;;;5069715;28;20213;-74
2023/12/26 04:36:58;;;;;;;1.20;0.90;;;10.50;99.90;;;;;;5073101;28;20182;-75
2023/12/26 04:39:23;;;;;;;1.77;0.90;;;10.50;99.90;;;;;;5065615;28;20175;-75
2023/12/26 04:41:49;;;;;;;1.00;0.90;;;10.50;99.90;;;;;;5056253;28;20665;-73
2023/12/26 04:44:15;;;;;;;1.17;0.70;;;10.60;99.90;;;;;;5061389;28;20217;-73
2023/12/26 04:46:40;;;;;;;1.10;0.90;;;10.60;99.90;;;;;;5057664;28;20178;-73
2023/12/26 04:49:06;;;;;;;2.23;0.93;;;10.60;99.90;;;;;;5073437;28;20174;-73
2023/12/26 04:51:31;;;;;;;2.40;0.80;;;10.60;99.90;;;;;;5064561;28;20560;-75
2023/12/26 04:53:57;;;;;;;5.63;0.97;;;10.60;99.90;;;;;;5071033;28;20190;-74
2023/12/26 04:56:23;;;;;;;1.37;1.00;;;10.70;99.90;;;;;;5070382;28;20704;-73
2023/12/26 04:58:51;;;;;;;1.90;0.80;;;10.70;99.90;;;;;;5069288;28;20491;-73
2023/12/26 05:01:18;;;;;;;2.37;1.00;;;10.70;99.90;;;;;;5061653;28;20898;-74
2023/12/26 05:03:44;;;;;;;1.17;0.83;;;10.70;99.90;;;;;;5071105;28;20519;-73
2023/12/26 05:06:10;;;;;;;2.30;1.03;;;10.60;99.90;;;;;;5070578;28;20456;-74
2023/12/26 05:08:40;;;;;;;1.47;0.90;;;10.60;99.90;;;;;;5060691;28;20463;-74
2023/12/26 05:11:06;;;;;;;1.97;0.90;;;10.60;99.90;;;;;;5067206;28;20524;-73
2023/12/26 05:13:36;;;;;;;2.50;0.90;;;10.60;99.90;;;;;;5072749;28;20436;-74
2023/12/26 05:16:03;;;;;;;7.63;1.40;;;10.60;99.90;;;;;;5067133;28;20432;-73
2023/12/26 05:18:28;;;;;;;1.23;0.80;;;10.60;99.90;;;;;;5070766;28;20471;-73
2023/12/26 05:20:54;;;;;;;1.43;0.90;;;10.60;99.90;;;;;;5070885;28;20424;-73
2023/12/26 05:23:19;;;;;;;1.30;1.10;;;10.70;99.90;;;;;;5072119;28;20190;-76
2023/12/26 05:25:45;;;;;;;3.07;1.10;;;10.70;99.90;;;;;;5069561;28;20171;-73
2023/12/26 05:28:10;;;;;;;4.90;1.50;;;10.80;99.90;;;;;;5064311;28;20263;-73
2023/12/26 05:30:36;;;;;;;2.30;0.93;;;10.80;99.90;;;;;;5069916;28;20181;-73
2023/12/26 05:33:01;;;;;;;2.40;1.30;;;10.90;99.90;;;;;;5064587;28;20209;-74
2023/12/26 05:35:27;;;;;;;2.80;1.00;;;10.90;99.90;;;;;;5064710;28;20183;-73
2023/12/26 05:37:53;;;;;;;1.40;1.27;;;10.90;99.90;;;;;;5065550;28;20206;-73
2023/12/26 05:40:19;;;;;;;2.60;1.00;;;11.00;99.90;;;;;;5068705;28;20550;-74
2023/12/26 05:42:47;;;;;;;2.23;0.93;;;11.00;99.90;;;;;;5068266;28;20448;-75
2023/12/26 05:45:12;;;;;;;4.57;1.07;;;11.00;99.90;;;;;;5070763;28;20473;-74
2023/12/26 05:47:38;;;;;;;3.70;1.23;;;11.00;99.90;;;;;;5071151;28;20416;-73
2023/12/26 05:50:04;;;;;;;4.93;1.23;;;11.10;99.90;;;;;;5072440;28;20601;-76
2023/12/26 05:52:29;;;;;;;2.00;1.00;;;11.10;99.90;;;;;;5069206;28;20214;-74
2023/12/26 05:54:55;;;;;;;4.00;1.17;;;11.10;99.90;;;;;;5070787;28;20183;-74
2023/12/26 05:57:20;;;;;;;3.17;1.33;;;11.10;99.90;;;;;;5070430;28;20548;-73
2023/12/26 05:59:46;;;;;;;4.40;1.30;;;11.10;99.90;;;;;;5070689;28;20177;-73
2023/12/26 06:02:12;;;;;;;1.93;1.00;;;11.00;99.90;;;;;;5068039;28;20198;-74
2023/12/26 06:04:37;;;;;;;6.13;1.70;;;11.00;99.90;;;;;;5068898;28;20603;-74
2023/12/26 06:07:03;;;;;;;1.30;1.20;;;11.00;99.90;;;;;;5062637;28;20169;-74
2023/12/26 06:09:29;;;;;;;2.90;1.30;;;11.00;99.90;;;;;;5071424;28;20680;-73
2023/12/26 06:11:54;;;;;;;1.73;1.13;;;11.00;99.90;;;;;;5069273;28;20194;-73
2023/12/26 06:14:22;;;;;;;5.13;1.10;;;11.00;99.90;;;;;;5070529;28;20173;-72
2023/12/26 06:16:48;;;;;;;1.43;1.33;;;11.00;99.90;;;;;;5066484;28;20200;-75
2023/12/26 06:19:13;;;;;;;5.47;2.10;;;11.00;99.90;;;;;;5060508;28;20431;-74
2023/12/26 06:21:39;;;;;;;10.67;1.47;;;11.00;99.90;;;;;;5079818;28;20600;-73
2023/12/26 06:24:04;;;;;;;4.50;1.00;;;10.90;99.90;;;;;;5070110;28;20179;-73
2023/12/26 06:26:30;;;;;;;2.50;1.10;;;10.90;99.90;;;;;;5064601;28;20202;-73
2023/12/26 06:28:55;;;;;;;1.87;1.37;;;10.90;99.90;;;;;;5071722;28;20173;-74
2023/12/26 06:31:21;;;;;;;7.07;1.80;;;10.80;99.90;;;;;;5066229;28;20610;-74
2023/12/26 06:33:47;;;;;;;3.23;1.10;;;10.80;99.90;;;;;;5071617;28;20178;-73
2023/12/26 06:36:12;;;;;;;1.27;1.00;;;10.70;99.90;;;;;;5060079;28;20182;-73
2023/12/26 06:38:38;;;;;;;1.87;1.40;;;10.70;99.90;;;;;;5071515;28;20202;-73
2023/12/26 06:41:04;;;;;;;3.83;1.83;;;10.70;99.90;;;;;;5061623;28;20510;-73
2023/12/26 06:43:30;;;;;;;3.70;1.27;;;10.70;99.90;;;;;;5065643;28;20280;-74
2023/12/26 06:45:56;;;;;;;3.50;1.23;;;10.70;99.90;;;;;;5068230;28;21030;-74
2023/12/26 06:48:22;;;;;;;2.17;1.10;;;10.60;99.90;;;;;;5062013;28;20200;-74
2023/12/26 06:50:48;;;;;;;2.93;1.90;;;10.60;99.90;;;;;;5064542;28;20515;-74
2023/12/26 06:53:13;;;;;;;1.83;1.30;;;10.60;99.90;;;;;;5071249;28;20780;-73
2023/12/26 06:55:39;;;;;;;2.57;1.10;;;10.60;99.90;;;;;;5070086;28;20432;-73
2023/12/26 06:58:05;;;;;;;1.30;1.00;;;10.60;99.90;;;;;;5068768;28;20709;-73
2023/12/26 07:00:30;;;;;;;1.87;1.10;;;10.60;99.90;;;;;;5070608;28;20208;-73
2023/12/26 07:02:56;;;;;;;1.40;1.00;;;10.70;99.90;;;;;;5074966;28;20198;-74
2023/12/26 07:05:21;;;;;;;1.60;1.17;;;10.60;99.90;;;;;;5069564;28;20189;-73
2023/12/26 07:07:48;;;;;;;1.40;0.93;;;10.70;99.90;;;;;;5066810;28;20182;-72
2023/12/26 07:10:14;;;;;;;1.57;1.33;;;10.60;99.90;;;;;;5074155;28;20641;-73
2023/12/26 07:12:39;;;;;;;1.30;1.20;;;10.60;99.90;;;;;;5071214;28;20537;-71
2023/12/26 07:15:06;;;;;;;2.80;1.90;;;10.60;99.90;;;;;;5070866;28;20178;-67
2023/12/26 07:17:32;;;;;;;2.07;1.80;;;10.70;99.90;;;;;;5072632;28;20213;-67
2023/12/26 07:19:58;;;;;;;3.33;1.83;;;10.80;99.90;;;;;;5070409;28;20440;-67
2023/12/26 07:22:23;;;;;;;1.53;1.23;;;10.90;99.90;;;;;;5069030;28;20446;-67
2023/12/26 07:24:49;;;;;;;6.57;1.90;;;11.00;99.90;;;;;;5069993;28;20179;-67
2023/12/26 07:27:14;;;;;;;3.63;1.63;;;11.10;99.90;;;;;;5066601;28;20182;-68
2023/12/26 07:29:40;;;;;;;4.40;1.30;;;11.10;99.90;;;;;;5074867;28;20260;-68
2023/12/26 07:32:05;;;;;;;2.60;1.43;;;11.20;99.90;;;;;;5067279;28;20198;-67
2023/12/26 07:34:31;;;;;;;3.73;1.77;;;11.20;99.90;;;;;;5069095;28;20186;-67
2023/12/26 07:36:57;;;;;;;2.83;1.37;;;11.20;99.90;;;;;;5061473;28;20182;-67
2023/12/26 07:39:22;;;;;;;2.20;1.40;;;11.20;99.90;;;;;;5074809;28;20178;-66
2023/12/26 07:41:48;;;;;;;1.90;1.40;;;11.20;99.90;;;;;;5068914;28;20250;-67
2023/12/26 07:44:13;;;;;;;2.50;1.20;;;11.30;99.90;;;;;;5070532;28;20732;-74
2023/12/26 07:46:39;;;;;;;12.63;6.83;;;11.30;99.90;;;;;;5064203;28;20577;-69
2023/12/26 07:49:06;;;;;;;5.13;2.30;;;11.40;99.90;;;;;;5074715;28;20178;-68
2023/12/26 07:51:32;;;;;;;2.70;1.23;;;11.30;99.90;;;;;;5068478;28;20182;-68
2023/12/26 07:53:59;;;;;;;1.13;0.90;;;11.30;99.90;;;;;;5073365;28;20436;-68
2023/12/26 07:56:25;;;;;;;2.30;1.40;;;11.20;99.90;;;;;;5066435;28;20471;-68
2023/12/26 07:58:52;;;;;;;1.77;1.43;;;11.20;99.90;;;;;;5072123;28;20927;-68
2023/12/26 08:01:18;;;;;;;3.03;1.20;;;11.20;99.90;;;;;;5064066;28;20432;-69
2023/12/26 08:03:44;;;;;;;4.70;1.60;;;11.20;99.90;;;;;;5063411;28;20486;-68
2023/12/26 08:06:10;;;;;;;2.53;1.43;;;11.10;99.90;;;;;;5059963;28;20932;-68
2023/12/26 08:08:35;;;;;;;1.40;1.27;;;11.10;99.90;;;;;;5059420;28;20174;-69
2023/12/26 08:11:01;;;;;;;3.93;1.80;;;11.10;99.90;;;;;;5067850;28;20187;-68
2023/12/26 08:13:26;;;;;;;3.43;1.53;;;11.20;99.90;;;;;;5070825;28;20206;-67
2023/12/26 08:15:52;;;;;;;5.37;1.50;;;11.10;99.90;;;;;;5064436;28;20201;-68
2023/12/26 08:18:17;;;;;;;4.43;1.87;;;11.20;99.90;;;;;;5072441;28;20232;-68
2023/12/26 08:20:43;;;;;;;5.13;1.30;;;11.30;99.90;;;;;;5069729;28;20176;-68
2023/12/26 08:23:09;;;;;;;1.13;1.00;;;11.30;99.90;;;;;;5072172;28;20202;-68
2023/12/26 08:25:35;;;;;;;5.73;1.60;;;11.30;99.90;;;;;;5073076;28;20198;-68
2023/12/26 08:28:01;;;;;;;2.90;1.50;;;11.30;99.90;;;;;;5064470;28;20171;-67
2023/12/26 08:30:26;;;;;;;3.50;1.33;;;11.40;99.90;;;;;;5057084;28;20436;-68
2023/12/26 08:32:52;;;;;;;2.10;1.30;;;11.30;99.90;;;;;;5055802;28;20967;-68
2023/12/26 08:35:17;;;;;;;4.43;1.87;;;11.30;99.90;;;;;;5060421;28;20265;-69
2023/12/26 08:37:43;;;;;;;4.93;1.97;;;11.40;99.90;;;;;;5061399;28;20194;-68
2023/12/26 08:40:08;;;;;;;2.40;1.23;;;11.50;99.90;;;;;;5057580;28;20179;-67
2023/12/26 08:42:34;;;;;;;1.80;1.40;;;11.50;99.90;;;;;;5061203;28;20191;-68
2023/12/26 08:44:59;;;;;;;5.53;1.90;;;11.60;99.90;;;;;;5061411;28;20174;-68
2023/12/26 08:47:25;;;;;;;5.40;2.17;;;11.60;99.90;;;;;;5054310;28;20178;-68
2023/12/26 08:49:50;;;;;;;6.10;1.90;;;11.60;99.90;;;;;;5056863;28;20189;-68
2023/12/26 08:52:16;;;;;;;3.03;1.60;;;11.70;99.90;;;;;;5065527;28;20205;-68
2023/12/26 08:54:43;;;;;;;2.57;1.83;;;11.70;99.90;;;;;;5057598;28;20190;-68
2023/12/26 08:57:08;;;;;;;2.80;1.80;;;11.70;99.90;;;;;;5055753;28;20181;-69
2023/12/26 08:59:34;;;;;;;3.23;1.40;;;11.60;99.90;;;;;;5065694;28;20428;-68
2023/12/26 09:02:00;;;;;;;8.47;1.87;;;11.70;99.90;;;;;;5058940;28;20202;-68
2023/12/26 09:04:26;;;;;;;5.10;1.50;;;11.70;99.90;;;;;;5061199;28;20568;-68
2023/12/26 09:06:55;;;;;;;5.57;1.30;;;11.80;99.90;;;;;;5057189;28;20254;-68
2023/12/26 09:09:20;;;;;;;7.03;1.77;;;12.00;99.90;;;;;;5056635;28;20470;-69
2023/12/26 09:11:46;;;;;;;2.50;1.50;;;12.10;99.90;;;;;;5062686;28;20843;-68
2023/12/26 09:14:13;;;;;;;2.80;1.60;;;12.20;99.90;;;;;;5065880;28;20181;-68
2023/12/26 09:16:39;;;;;;;7.10;1.10;;;12.10;99.90;;;;;;5063646;28;20174;-68
2023/12/26 09:19:05;;;;;;;3.53;1.30;;;12.10;99.90;;;;;;5062940;28;20461;-68
2023/12/26 09:21:30;;;;;;;5.07;2.13;;;12.00;99.90;;;;;;5063250;28;20931;-68
2023/12/26 09:23:56;;;;;;;2.87;1.47;;;12.10;99.90;;;;;;5054503;28;20723;-68
2023/12/26 09:26:21;;;;;;;7.37;1.53;;;12.00;99.90;;;;;;5061233;28;20570;-68
2023/12/26 09:28:48;;;;;;;9.77;1.50;;;11.90;99.90;;;;;;5060897;28;20174;-69
2023/12/26 09:31:14;;;;;;;1.70;1.40;;;11.80;99.90;;;;;;5063999;28;20183;-67
2023/12/26 09:33:39;;;;;;;8.83;2.03;;;11.80;99.90;;;;;;5065969;28;20965;-69
2023/12/26 09:36:05;;;;;;;6.63;1.83;;;11.80;99.90;;;;;;5069042;28;20305;-69
2023/12/26 09:38:31;;;;;;;2.43;1.30;;;11.90;99.90;;;;;;5058810;28;20199;-69
2023/12/26 09:40:56;;;;;;;2.13;1.37;;;11.90;99.90;;;;;;5051357;28;20735;-68
2023/12/26 09:43:22;;;;;;;5.53;1.77;;;11.90;99.90;;;;;;5058420;28;20221;-68
2023/12/26 09:45:48;;;;;;;4.83;1.67;;;12.00;99.90;;;;;;5063718;28;20182;-68
2023/12/26 09:48:14;;;;;;;5.40;1.40;;;12.00;99.90;;;;;;5068767;28;20649;-68
2023/12/26 09:50:39;;;;;;;6.33;1.57;;;11.90;99.90;;;;;;5068441;28;20266;-69
2023/12/26 09:53:08;;;;;;;3.77;1.30;;;11.80;99.90;;;;;;5066965;28;20491;-68
2023/12/26 09:55:34;;;;;;;2.43;1.70;;;11.70;99.90;;;;;;5062348;28;20228;-68
2023/12/26 09:58:01;;;;;;;2.77;1.60;;;11.70;99.90;;;;;;5061432;28;20452;-69
2023/12/26 10:00:27;;;;;;;2.23;1.40;;;11.70;99.90;;;;;;5062621;28;20224;-69
2023/12/26 10:02:53;;;;;;;7.97;3.50;;;11.70;99.90;;;;;;5068309;28;20467;-68
2023/12/26 10:05:20;;;;;;;4.60;2.43;;;11.60;99.90;;;;;;5070537;28;20166;-68
2023/12/26 10:07:45;;;;;;;4.10;1.37;;;11.70;99.90;;;;;;5069281;28;20409;-68
2023/12/26 10:10:20;;;;;;;5.10;1.80;;;12.00;99.90;;;;;;5055553;28;20452;-68
2023/12/26 10:12:47;;;;;;;3.80;1.30;;;12.20;99.90;;;;;;5063416;28;20620;-69
2023/12/26 10:15:13;;;;;;;7.93;1.73;;;12.60;99.90;;;;;;5071585;28;20432;-69
2023/12/26 10:17:42;;;;;;;5.70;1.70;;;13.20;99.90;;;;;;5064212;28;20499;-69
2023/12/26 10:20:13;;;;;;;2.80;1.50;;;14.90;99.90;;;;;;5070353;28;20170;-69
2023/12/26 10:22:42;;;;;;;5.77;1.43;;;16.10;99.90;;;;;;5059725;28;20487;-70
2023/12/26 10:25:11;;;;;;;1.60;1.30;;;16.80;99.90;;;;;;5059405;28;20420;-69
2023/12/26 10:27:38;;;;;;;1.60;1.20;;;17.00;99.90;;;;;;5071771;28;20405;-69
2023/12/26 10:30:04;;;;;;;3.90;1.40;;;16.80;99.90;;;;;;5070080;28;20440;-68
2023/12/26 10:32:30;;;;;;;5.83;1.13;;;16.50;99.90;;;;;;5063192;28;20450;-69
2023/12/26 10:34:56;;;;;;;2.50;0.97;;;16.10;99.90;;;;;;5061776;28;20420;-69
2023/12/26 10:37:22;;;;;;;9.10;4.43;;;15.70;99.90;;;;;;5071580;28;20871;-70
2023/12/26 10:39:48;;;;;;;4.60;1.50;;;15.00;99.90;;;;;;5061469;28;20523;-68
2023/12/26 10:42:18;;;;;;;3.67;1.70;;;14.60;99.90;;;;;;5066221;28;20866;-69
2023/12/26 10:44:59;;;;;;;3.00;1.50;;;14.60;99.90;;;;;;5065461;28;20955;-68
2023/12/26 10:47:28;;;;;;;3.70;1.37;;;14.70;99.90;;;;;;5060199;28;20778;-69
2023/12/26 10:49:59;;;;;;;3.97;1.83;;;14.70;99.90;;;;;;5068680;28;20989;-70
2023/12/26 10:52:27;;;;;;;5.60;1.47;;;14.60;99.90;;;;;;5067029;28;20497;-68
2023/12/26 10:54:55;;;;;;;3.83;1.20;;;14.40;99.90;;;;;;5062600;28;20524;-70
2023/12/26 10:57:21;;;;;;;2.40;1.10;;;14.50;99.90;;;;;;5060100;28;20456;-69
2023/12/26 13:52:21;;;;;;;3.17;1.80;;;12.30;99.90;;;;;;5075035;28;20412;-69
2023/12/26 13:55:24;;;;;;;2.23;1.23;;;12.20;99.90;;;;;;5062237;28;20931;-68
2023/12/26 13:58:27;;;;;;;3.90;1.13;;;12.10;99.90;;;;;;5076752;28;20461;-69
2023/12/26 14:01:30;;;;;;;2.33;1.60;;;11.90;99.90;;;;;;5092250;28;20411;-69
2023/12/26 14:04:33;;;;;;;5.77;2.33;;;11.80;99.90;;;;;;5084829;28;20481;-68
2023/12/26 14:07:37;;;;;;;3.63;2.20;;;11.80;99.90;;;;;;5051890;28;20749;-68
2023/12/26 14:10:40;;;;;;;3.00;1.33;;;11.70;99.90;;;;;;5052212;28;20822;-67
2023/12/26 14:13:43;;;;;;;3.43;1.47;;;11.70;99.90;;;;;;5072596;28;20465;-69
2023/12/26 14:16:46;;;;;;;3.30;1.37;;;11.70;99.90;;;;;;5090264;28;20426;-69
2023/12/26 14:19:49;;;;;;;2.90;1.60;;;11.60;99.90;;;;;;5077135;28;20467;-68
2023/12/26 14:22:52;;;;;;;17.43;1.83;;;11.50;99.90;;;;;;5083533;28;20427;-68
2023/12/26 14:25:55;;;;;;;10.33;3.00;;;11.50;99.90;;;;;;5088195;28;20434;-68
2023/12/26 14:28:58;;;;;;;11.80;2.53;;;11.40;99.90;;;;;;5068038;28;20482;-68
2023/12/26 14:32:02;;;;;;;4.77;1.70;;;11.40;99.90;;;;;;5086870;28;20959;-68
2023/12/26 14:35:05;;;;;;;6.30;1.80;;;11.30;99.90;;;;;;5052406;28;20428;-68
2023/12/26 14:38:08;;;;;;;7.40;1.60;;;11.30;99.90;;;;;;5076295;28;20839;-68
2023/12/26 14:41:11;;;;;;;5.57;2.00;;;11.30;99.90;;;;;;5092102;28;20464;-68
2023/12/26 14:44:14;;;;;;;4.13;1.53;;;11.20;99.90;;;;;;5075631;28;20850;-68
2023/12/26 14:47:17;;;;;;;2.37;1.70;;;11.20;99.90;;;;;;5057177;28;20431;-68
2023/12/26 14:50:20;;;;;;;5.87;4.07;;;11.20;99.90;;;;;;5062395;28;20431;-69
2023/12/26 14:53:23;;;;;;;6.90;1.90;;;11.10;99.90;;;;;;5062856;28;20858;-68
2023/12/26 14:56:26;;;;;;;10.43;1.30;;;11.00;99.90;;;;;;5058783;28;20444;-68
2023/12/26 14:59:29;;;;;;;2.07;1.63;;;10.90;99.90;;;;;;5048803;28;20455;-68
2023/12/26 15:01:58;;;;;;;5.13;2.30;;;10.90;99.90;;;;;;5065995;28;20444;-69
2023/12/26 15:04:27;;;;;;;3.23;1.10;;;10.70;99.90;;;;;;5054617;28;20523;-68
2023/12/26 15:06:56;;;;;;;3.97;1.57;;;10.60;99.90;;;;;;5072939;28;20412;-69
2023/12/26 15:09:22;;;;;;;2.87;1.50;;;10.60;99.90;;;;;;5052261;28;20490;-68
2023/12/26 15:11:47;;;;;;;9.63;5.33;;;10.60;99.90;;;;;;5054144;28;20490;-69
2023/12/26 15:14:13;;;;;;;14.23;5.13;;;10.70;99.90;;;;;;5061092;28;20440;-68
2023/12/26 15:16:39;;;;;;;4.50;2.57;;;10.70;99.90;;;;;;5076079;28;20248;-68
2023/12/26 15:19:04;;;;;;;3.13;2.37;;;10.60;99.90;;;;;;5059299;28;20198;-68
2023/12/26 15:21:30;;;;;;;4.87;2.17;;;10.60;99.90;;;;;;5074420;28;20166;-68
2023/12/26 15:23:56;;;;;;;6.40;1.70;;;10.50;99.90;;;;;;5068260;28;20181;-69
2023/12/26 15:26:21;;;;;;;5.83;1.77;;;10.60;99.90;;;;;;5072993;28;20227;-69
2023/12/26 15:28:48;;;;;;;4.60;1.90;;;10.60;99.90;;;;;;5062707;28;20171;-69
2023/12/26 15:31:15;;;;;;;3.27;1.83;;;10.40;99.90;;;;;;5074618;28;20170;-68
2023/12/26 15:33:44;;;;;;;4.40;1.70;;;10.40;99.90;;;;;;5064685;28;20457;-68
2023/12/26 15:36:20;;;;;;;8.30;2.53;;;10.30;99.90;;;;;;5066237;28;20508;-69
2023/12/26 15:38:47;;;;;;;15.43;6.10;;;10.10;99.90;;;;;;5062374;28;20897;-68
2023/12/26 15:41:12;;;;;;;3.53;2.43;;;10.00;99.90;;;;;;5061861;28;20411;-69
2023/12/26 15:43:39;;;;;;;4.60;1.63;;;10.00;99.90;;;;;;5073787;28;20448;-69
2023/12/26 15:46:21;;;;;;;6.43;1.90;;;9.90;99.90;;;;;;5062959;28;20170;-69